createdAt,value
2022-08-11T00:03:43.607Z,17.46
2022-08-11T00:08:50.734Z,17.22
2022-08-11T00:13:52.676Z,17.12
2022-08-11T00:18:58.878Z,16.99
2022-08-11T00:24:01.944Z,17.02
2022-08-11T00:29:11.810Z,17.04
2022-08-11T00:34:14.892Z,16.94
2022-08-11T00:39:19.571Z,16.97
2022-08-11T00:44:45.075Z,17.08
2022-08-11T00:49:58.716Z,16.99
2022-08-11T00:55:27.977Z,16.80
2022-08-11T01:00:44.166Z,16.75
2022-08-11T01:06:07.883Z,16.69
2022-08-11T01:11:21.556Z,16.61
2022-08-11T01:16:57.128Z,16.44
2022-08-11T01:22:19.925Z,16.33
2022-08-11T01:27:21.377Z,16.37
2022-08-11T01:32:38.141Z,16.17
2022-08-11T01:38:26.960Z,16.02
2022-08-11T01:44:12.821Z,16.03
2022-08-11T01:50:06.914Z,16.08
2022-08-11T01:55:18.251Z,16.05
2022-08-11T02:00:22.159Z,15.93
2022-08-11T02:05:45.953Z,15.72
2022-08-11T02:11:31.161Z,15.75
2022-08-11T02:16:54.680Z,15.84
2022-08-11T02:22:42.925Z,15.63
2022-08-11T02:27:52.908Z,15.68
2022-08-11T02:33:24.410Z,15.69
2022-08-11T02:38:46.678Z,15.65
2022-08-11T02:44:17.558Z,15.60
2022-08-11T02:50:09.508Z,15.70
2022-08-11T02:55:56.259Z,15.54
2022-08-11T03:01:13.023Z,15.52
2022-08-11T03:06:39.079Z,15.42
2022-08-11T03:12:43.063Z,15.34
2022-08-11T03:18:29.461Z,15.51
2022-08-11T03:23:50.569Z,15.37
2022-08-11T03:29:09.023Z,15.37
2022-08-11T03:34:16.355Z,15.50
2022-08-11T03:39:36.769Z,15.32
2022-08-11T03:44:59.570Z,15.22
2022-08-11T03:50:24.909Z,15.04
2022-08-11T03:56:06.585Z,15.16
2022-08-11T04:01:40.226Z,15.07
2022-08-11T04:07:00.276Z,14.88
2022-08-11T04:12:39.880Z,14.81
2022-08-11T04:18:01.134Z,14.83
2022-08-11T04:24:36.385Z,14.83
2022-08-11T04:29:09.751Z,14.75
2022-08-11T04:34:50.578Z,14.64
2022-08-11T04:40:22.990Z,14.65
2022-08-11T04:45:55.333Z,14.61
2022-08-11T04:51:40.008Z,14.55
2022-08-11T04:57:03.412Z,14.51
2022-08-11T05:02:23.146Z,14.71
2022-08-11T05:07:48.671Z,14.94
2022-08-11T05:13:19.786Z,15.10
2022-08-11T05:18:43.441Z,15.25
2022-08-11T05:24:07.708Z,15.44
2022-08-11T05:30:08.429Z,15.75
2022-08-11T05:35:18.477Z,16.00
2022-08-11T05:40:53.370Z,16.28
2022-08-11T05:46:23.608Z,16.50
2022-08-11T05:51:55.254Z,16.94
2022-08-11T05:57:00.117Z,17.14
2022-08-11T06:02:07.297Z,17.39
2022-08-11T06:07:11.526Z,17.74
2022-08-11T06:12:24.823Z,18.17
2022-08-11T06:17:39.242Z,18.59
2022-08-11T06:22:47.564Z,19.13
2022-08-11T06:27:56.490Z,19.23
2022-08-11T06:33:00.559Z,19.73
2022-08-11T06:38:09.331Z,19.89
2022-08-11T06:43:21.733Z,20.25
2022-08-11T06:48:25.596Z,21.66
2022-08-11T06:53:34.710Z,21.79
2022-08-11T06:58:59.087Z,21.73
2022-08-11T07:04:08.436Z,22.14
2022-08-11T07:09:38.147Z,22.32
2022-08-11T07:15:07.752Z,22.64
2022-08-11T07:20:29.194Z,23.00
2022-08-11T07:25:52.620Z,23.47
2022-08-11T07:30:58.494Z,23.62
2022-08-11T07:36:03.093Z,23.98
2022-08-11T07:41:04.810Z,24.01
2022-08-11T07:46:30.173Z,24.46
2022-08-11T07:51:50.694Z,24.96
2022-08-11T07:56:55.605Z,25.01
2022-08-11T08:02:33.788Z,25.16
2022-08-11T08:07:56.759Z,25.32
2022-08-11T08:13:17.746Z,25.78
2022-08-11T08:18:27.074Z,26.23
2022-08-11T08:23:35.299Z,25.88
2022-08-11T08:28:37.061Z,25.86
2022-08-11T08:33:42.126Z,26.62
2022-08-11T08:38:54.197Z,26.90
2022-08-11T08:44:15.142Z,26.59
2022-08-11T08:49:34.649Z,27.23
2022-08-11T08:54:44.778Z,27.33
2022-08-11T08:59:51.538Z,27.72
2022-08-11T09:04:54.012Z,27.76
2022-08-11T09:09:59.307Z,28.15
2022-08-11T09:15:04.844Z,28.53
2022-08-11T09:20:19.842Z,28.91
2022-08-11T09:25:51.495Z,28.43
2022-08-11T09:30:55.354Z,29.24
2022-08-11T09:35:58.504Z,29.29
2022-08-11T09:41:05.697Z,29.54
2022-08-11T09:46:09.051Z,29.50
2022-08-11T09:51:11.667Z,29.74
2022-08-11T09:56:36.026Z,29.40
2022-08-11T10:01:53.120Z,30.19
2022-08-11T10:07:10.734Z,30.56
2022-08-11T10:12:29.605Z,30.60
2022-08-11T10:17:36.698Z,30.45
2022-08-11T10:22:59.147Z,30.04
2022-08-11T10:28:18.441Z,30.96
2022-08-11T10:33:54.332Z,31.26
2022-08-11T10:39:01.348Z,31.57
2022-08-11T10:44:08.668Z,30.76
2022-08-11T10:49:10.799Z,31.07
2022-08-11T10:54:33.616Z,31.11
2022-08-11T10:59:35.779Z,31.19
2022-08-11T11:04:56.216Z,31.40
2022-08-11T11:10:02.852Z,31.00
2022-08-11T11:15:25.371Z,31.53
2022-08-11T11:20:45.023Z,31.41
2022-08-11T11:26:16.127Z,32.30
2022-08-11T11:32:06.017Z,31.77
2022-08-11T11:37:08.187Z,32.28
2022-08-11T11:42:12.503Z,31.63
2022-08-11T11:47:18.384Z,32.49
2022-08-11T11:52:24.788Z,31.36
2022-08-11T11:57:59.405Z,31.79
2022-08-11T12:03:10.732Z,32.68
2022-08-11T12:08:16.350Z,32.88
2022-08-11T12:13:37.661Z,32.60
2022-08-11T12:18:41.643Z,32.47
2022-08-11T12:24:04.681Z,32.52
2022-08-11T12:29:09.922Z,31.73
2022-08-11T12:34:14.368Z,32.35
2022-08-11T12:39:24.331Z,32.70
2022-08-11T12:45:01.624Z,32.30
2022-08-11T12:50:22.733Z,32.48
2022-08-11T12:56:07.563Z,32.90
2022-08-11T13:01:25.161Z,32.41
2022-08-11T13:06:27.672Z,32.63
2022-08-11T13:11:55.682Z,32.58
2022-08-11T13:17:18.368Z,32.80
2022-08-11T13:22:24.595Z,32.50
2022-08-11T13:27:26.937Z,32.38
2022-08-11T13:32:29.282Z,32.50
2022-08-11T13:38:18.843Z,32.72
2022-08-11T13:42:53.439Z,32.38
2022-08-11T13:48:00.110Z,32.20
2022-08-11T13:53:02.109Z,31.82
2022-08-11T13:58:06.454Z,32.31
2022-08-11T14:03:13.150Z,31.90
2022-08-11T14:08:37.792Z,31.69
2022-08-11T14:13:48.307Z,31.50
2022-08-11T14:18:54.315Z,31.47
2022-08-11T14:23:59.481Z,31.56
2022-08-11T14:29:08.775Z,31.57
2022-08-11T14:34:13.200Z,31.07
2022-08-11T14:39:18.615Z,31.33
2022-08-11T14:44:39.659Z,31.19
2022-08-11T14:49:49.212Z,30.93
2022-08-11T14:55:24.432Z,30.98
2022-08-11T15:00:26.895Z,30.95
2022-08-11T15:05:29.040Z,31.22
2022-08-11T15:10:31.038Z,30.81
2022-08-11T15:15:52.695Z,30.93
2022-08-11T15:21:13.033Z,30.65
2022-08-11T15:26:19.908Z,30.76
2022-08-11T15:31:58.744Z,30.72
2022-08-11T15:37:25.705Z,30.82
2022-08-11T15:42:48.222Z,30.61
2022-08-11T15:47:58.424Z,30.84
2022-08-11T15:53:26.485Z,30.49
2022-08-11T15:59:10.852Z,30.42
2022-08-11T16:04:19.603Z,30.58
2022-08-11T16:09:28.414Z,30.57
2022-08-11T16:14:58.135Z,30.41
2022-08-11T16:20:03.817Z,30.39
2022-08-11T16:27:03.822Z,30.18
2022-08-11T16:30:41.575Z,30.49
2022-08-11T16:36:03.392Z,30.27
2022-08-11T16:41:11.884Z,30.23
2022-08-11T16:46:37.655Z,30.20
2022-08-11T16:51:39.455Z,30.22
2022-08-11T16:56:43.516Z,30.01
2022-08-11T17:01:55.278Z,29.98
2022-08-11T17:07:40.514Z,30.17
2022-08-11T17:12:59.042Z,30.03
2022-08-11T17:18:04.174Z,30.34
2022-08-11T17:23:26.876Z,30.16
2022-08-11T17:28:29.803Z,30.35
2022-08-11T17:33:49.996Z,30.38
2022-08-11T17:38:53.004Z,30.34
2022-08-11T17:44:14.386Z,30.35
2022-08-11T17:49:16.936Z,30.24
2022-08-11T17:54:38.786Z,30.15
2022-08-11T17:59:53.765Z,30.41
2022-08-11T18:04:57.026Z,29.93
2022-08-11T18:10:18.242Z,29.72
2022-08-11T18:15:38.856Z,29.58
2022-08-11T18:21:10.864Z,29.28
2022-08-11T18:26:34.368Z,29.15
2022-08-11T18:32:00.778Z,28.87
2022-08-11T18:37:29.566Z,28.66
2022-08-11T18:42:51.263Z,28.45
2022-08-11T18:48:19.649Z,28.08
2022-08-11T18:53:43.523Z,27.98
2022-08-11T18:59:08.900Z,27.73
2022-08-11T19:04:32.840Z,27.41
2022-08-11T19:10:04.019Z,27.03
2022-08-11T19:15:27.982Z,26.87
2022-08-11T19:20:53.409Z,26.81
2022-08-11T19:26:16.069Z,26.04
2022-08-11T19:31:42.507Z,25.73
2022-08-11T19:37:07.979Z,25.35
2022-08-11T19:42:28.944Z,25.05
2022-08-11T19:48:03.152Z,24.78
2022-08-11T19:53:32.307Z,24.49
2022-08-11T19:58:59.457Z,24.36
2022-08-11T20:04:19.596Z,24.13
2022-08-11T20:10:04.957Z,23.93
2022-08-11T20:15:22.308Z,23.65
2022-08-11T20:20:49.233Z,23.42
2022-08-11T20:26:30.191Z,23.01
2022-08-11T20:31:51.784Z,22.95
2022-08-11T20:37:13.653Z,22.80
2022-08-11T20:42:35.867Z,22.72
2022-08-11T20:48:00.596Z,22.35
2022-08-11T20:53:23.203Z,22.38
2022-08-11T21:04:25.201Z,21.85
2022-08-11T21:10:09.338Z,21.70
2022-08-11T21:15:47.176Z,21.62
2022-08-11T21:21:16.429Z,21.46
2022-08-11T21:26:39.500Z,21.41
2022-08-11T21:32:02.607Z,21.28
2022-08-11T21:37:25.179Z,21.17
2022-08-11T21:42:46.624Z,21.12
2022-08-11T21:48:07.721Z,21.04
2022-08-11T21:53:28.830Z,20.99
2022-08-11T21:58:51.158Z,21.02
2022-08-11T22:04:13.141Z,20.86
2022-08-11T22:09:35.861Z,20.76
2022-08-11T22:14:56.561Z,20.64
2022-08-11T22:20:17.840Z,20.46
2022-08-11T22:25:39.122Z,20.32
2022-08-11T22:31:10.444Z,20.28
2022-08-11T22:36:33.898Z,20.19
2022-08-11T22:41:54.736Z,20.06
2022-08-11T22:47:18.560Z,20.07
2022-08-11T22:52:40.921Z,20.05
2022-08-11T22:58:01.569Z,19.94
2022-08-11T23:03:37.698Z,19.89
2022-08-11T23:08:59.001Z,19.76
2022-08-11T23:14:21.992Z,19.67
2022-08-11T23:20:10.487Z,19.59
2022-08-11T23:25:23.652Z,19.51
2022-08-11T23:30:46.667Z,19.62
2022-08-11T23:36:10.127Z,19.71
2022-08-11T23:41:50.264Z,19.48
2022-08-11T23:47:13.171Z,19.42
2022-08-11T23:52:36.659Z,19.34
2022-08-11T23:58:03.101Z,19.27
